sensor_id;sensor_type;location;lat;lon;timestamp;P1;durP1;ratioP1;P2;durP2;ratioP2
75261;SDS011;63859;51.064;4.580;2023-05-07T00:02:06;15.23;;;8.43;;
75261;SDS011;63859;51.064;4.580;2023-05-07T00:04:32;11.98;;;7.95;;
75261;SDS011;63859;51.064;4.580;2023-05-07T00:07:02;17.35;;;7.95;;
75261;SDS011;63859;51.064;4.580;2023-05-07T00:09:28;14.38;;;8.27;;
75261;SDS011;63859;51.064;4.580;2023-05-07T00:11:53;14.82;;;8.00;;
75261;SDS011;63859;51.064;4.580;2023-05-07T00:14:19;14.82;;;8.32;;
75261;SDS011;63859;51.064;4.580;2023-05-07T00:16:45;12.73;;;7.60;;
75261;SDS011;63859;51.064;4.580;2023-05-07T00:19:11;12.75;;;7.28;;
75261;SDS011;63859;51.064;4.580;2023-05-07T00:21:36;16.02;;;7.85;;
75261;SDS011;63859;51.064;4.580;2023-05-07T00:24:02;11.27;;;7.63;;
75261;SDS011;63859;51.064;4.580;2023-05-07T00:26:28;15.88;;;8.68;;
75261;SDS011;63859;51.064;4.580;2023-05-07T00:28:54;13.80;;;7.90;;
75261;SDS011;63859;51.064;4.580;2023-05-07T00:31:19;11.05;;;7.55;;
75261;SDS011;63859;51.064;4.580;2023-05-07T00:33:45;12.50;;;8.32;;
75261;SDS011;63859;51.064;4.580;2023-05-07T00:36:11;12.82;;;7.60;;
75261;SDS011;63859;51.064;4.580;2023-05-07T00:38:37;12.15;;;7.88;;
75261;SDS011;63859;51.064;4.580;2023-05-07T00:41:02;15.10;;;7.80;;
75261;SDS011;63859;51.064;4.580;2023-05-07T00:43:28;12.98;;;7.60;;
75261;SDS011;63859;51.064;4.580;2023-05-07T00:45:54;14.25;;;7.72;;
75261;SDS011;63859;51.064;4.580;2023-05-07T00:48:20;15.90;;;7.68;;
75261;SDS011;63859;51.064;4.580;2023-05-07T00:50:46;12.25;;;7.50;;
75261;SDS011;63859;51.064;4.580;2023-05-07T00:53:13;13.65;;;7.93;;
75261;SDS011;63859;51.064;4.580;2023-05-07T00:55:39;12.25;;;8.40;;
75261;SDS011;63859;51.064;4.580;2023-05-07T00:58:05;11.32;;;7.57;;
75261;SDS011;63859;51.064;4.580;2023-05-07T01:00:31;10.63;;;7.85;;
75261;SDS011;63859;51.064;4.580;2023-05-07T01:02:57;15.25;;;8.10;;
75261;SDS011;63859;51.064;4.580;2023-05-07T01:05:23;13.65;;;8.65;;
75261;SDS011;63859;51.064;4.580;2023-05-07T01:07:50;13.45;;;8.88;;
75261;SDS011;63859;51.064;4.580;2023-05-07T01:10:19;15.95;;;9.55;;
75261;SDS011;63859;51.064;4.580;2023-05-07T01:12:45;17.55;;;9.57;;
75261;SDS011;63859;51.064;4.580;2023-05-07T01:15:13;18.17;;;9.63;;
75261;SDS011;63859;51.064;4.580;2023-05-07T01:17:40;17.05;;;9.70;;
75261;SDS011;63859;51.064;4.580;2023-05-07T01:20:07;17.17;;;9.95;;
75261;SDS011;63859;51.064;4.580;2023-05-07T01:22:37;13.35;;;9.52;;
75261;SDS011;63859;51.064;4.580;2023-05-07T01:25:04;12.90;;;9.65;;
75261;SDS011;63859;51.064;4.580;2023-05-07T01:27:31;12.70;;;9.75;;
75261;SDS011;63859;51.064;4.580;2023-05-07T01:29:58;16.85;;;9.27;;
75261;SDS011;63859;51.064;4.580;2023-05-07T01:32:48;15.68;;;9.38;;
75261;SDS011;63859;51.064;4.580;2023-05-07T01:35:24;14.98;;;9.88;;
75261;SDS011;63859;51.064;4.580;2023-05-07T01:37:55;13.77;;;9.05;;
75261;SDS011;63859;51.064;4.580;2023-05-07T01:40:22;15.98;;;9.75;;
75261;SDS011;63859;51.064;4.580;2023-05-07T01:42:49;15.98;;;10.00;;
75261;SDS011;63859;51.064;4.580;2023-05-07T01:45:15;13.20;;;9.32;;
75261;SDS011;63859;51.064;4.580;2023-05-07T01:47:41;13.98;;;9.68;;
75261;SDS011;63859;51.064;4.580;2023-05-07T01:50:08;15.70;;;9.15;;
75261;SDS011;63859;51.064;4.580;2023-05-07T01:52:35;12.07;;;9.00;;
75261;SDS011;63859;51.064;4.580;2023-05-07T01:55:02;13.70;;;9.70;;
75261;SDS011;63859;51.064;4.580;2023-05-07T01:57:29;16.00;;;9.85;;
75261;SDS011;63859;51.064;4.580;2023-05-07T01:59:55;15.05;;;9.40;;
75261;SDS011;63859;51.064;4.580;2023-05-07T02:02:21;13.65;;;9.30;;
75261;SDS011;63859;51.064;4.580;2023-05-07T02:04:46;13.85;;;9.73;;
75261;SDS011;63859;51.064;4.580;2023-05-07T02:07:12;13.63;;;9.10;;
75261;SDS011;63859;51.064;4.580;2023-05-07T02:09:38;13.05;;;9.50;;
75261;SDS011;63859;51.064;4.580;2023-05-07T02:12:03;11.88;;;9.65;;
75261;SDS011;63859;51.064;4.580;2023-05-07T02:14:29;14.45;;;10.05;;
75261;SDS011;63859;51.064;4.580;2023-05-07T02:16:55;13.48;;;10.23;;
75261;SDS011;63859;51.064;4.580;2023-05-07T02:19:21;17.40;;;9.95;;
75261;SDS011;63859;51.064;4.580;2023-05-07T02:21:46;13.25;;;9.85;;
75261;SDS011;63859;51.064;4.580;2023-05-07T02:24:12;14.68;;;10.15;;
75261;SDS011;63859;51.064;4.580;2023-05-07T02:26:39;14.02;;;10.23;;
75261;SDS011;63859;51.064;4.580;2023-05-07T02:29:05;14.20;;;9.63;;
75261;SDS011;63859;51.064;4.580;2023-05-07T02:31:31;14.05;;;9.55;;
75261;SDS011;63859;51.064;4.580;2023-05-07T02:33:58;13.50;;;10.13;;
75261;SDS011;63859;51.064;4.580;2023-05-07T02:36:24;14.35;;;10.13;;
75261;SDS011;63859;51.064;4.580;2023-05-07T02:38:51;12.27;;;9.45;;
75261;SDS011;63859;51.064;4.580;2023-05-07T02:41:17;16.55;;;10.10;;
75261;SDS011;63859;51.064;4.580;2023-05-07T02:43:42;14.77;;;10.30;;
75261;SDS011;63859;51.064;4.580;2023-05-07T02:46:08;14.32;;;10.15;;
75261;SDS011;63859;51.064;4.580;2023-05-07T02:48:34;14.95;;;9.70;;
75261;SDS011;63859;51.064;4.580;2023-05-07T02:51:00;14.48;;;9.32;;
75261;SDS011;63859;51.064;4.580;2023-05-07T02:53:27;14.95;;;9.88;;
75261;SDS011;63859;51.064;4.580;2023-05-07T02:55:55;15.35;;;10.60;;
75261;SDS011;63859;51.064;4.580;2023-05-07T02:58:22;14.30;;;10.35;;
75261;SDS011;63859;51.064;4.580;2023-05-07T03:00:48;14.45;;;10.02;;
75261;SDS011;63859;51.064;4.580;2023-05-07T03:03:14;12.40;;;10.13;;
75261;SDS011;63859;51.064;4.580;2023-05-07T03:05:39;14.60;;;10.00;;
75261;SDS011;63859;51.064;4.580;2023-05-07T03:08:05;14.63;;;9.88;;
75261;SDS011;63859;51.064;4.580;2023-05-07T03:10:32;16.70;;;10.02;;
75261;SDS011;63859;51.064;4.580;2023-05-07T03:12:57;15.80;;;8.93;;
75261;SDS011;63859;51.064;4.580;2023-05-07T03:15:23;14.90;;;9.98;;
75261;SDS011;63859;51.064;4.580;2023-05-07T03:17:48;16.90;;;11.07;;
75261;SDS011;63859;51.064;4.580;2023-05-07T03:20:14;12.25;;;9.65;;
75261;SDS011;63859;51.064;4.580;2023-05-07T03:22:40;13.40;;;9.98;;
75261;SDS011;63859;51.064;4.580;2023-05-07T03:25:06;12.43;;;9.75;;
75261;SDS011;63859;51.064;4.580;2023-05-07T03:27:32;14.05;;;10.40;;
75261;SDS011;63859;51.064;4.580;2023-05-07T03:29:57;15.80;;;10.68;;
75261;SDS011;63859;51.064;4.580;2023-05-07T03:32:23;15.27;;;9.88;;
75261;SDS011;63859;51.064;4.580;2023-05-07T03:34:49;10.85;;;9.40;;
75261;SDS011;63859;51.064;4.580;2023-05-07T03:37:15;12.60;;;9.57;;
75261;SDS011;63859;51.064;4.580;2023-05-07T03:39:41;13.73;;;10.20;;
75261;SDS011;63859;51.064;4.580;2023-05-07T03:42:06;17.23;;;9.73;;
75261;SDS011;63859;51.064;4.580;2023-05-07T03:44:32;14.02;;;9.57;;
75261;SDS011;63859;51.064;4.580;2023-05-07T03:46:57;12.38;;;10.07;;
75261;SDS011;63859;51.064;4.580;2023-05-07T03:49:23;14.88;;;9.98;;
75261;SDS011;63859;51.064;4.580;2023-05-07T03:51:49;13.75;;;9.75;;
75261;SDS011;63859;51.064;4.580;2023-05-07T03:54:14;13.48;;;9.52;;
75261;SDS011;63859;51.064;4.580;2023-05-07T03:56:40;12.70;;;10.27;;
75261;SDS011;63859;51.064;4.580;2023-05-07T03:59:06;12.80;;;10.23;;
75261;SDS011;63859;51.064;4.580;2023-05-07T04:01:31;13.52;;;10.50;;
75261;SDS011;63859;51.064;4.580;2023-05-07T04:03:57;16.05;;;10.38;;
75261;SDS011;63859;51.064;4.580;2023-05-07T04:06:23;16.17;;;10.00;;
75261;SDS011;63859;51.064;4.580;2023-05-07T04:08:49;16.25;;;10.68;;
75261;SDS011;63859;51.064;4.580;2023-05-07T04:11:14;17.15;;;11.07;;
75261;SDS011;63859;51.064;4.580;2023-05-07T04:13:40;13.88;;;11.10;;
75261;SDS011;63859;51.064;4.580;2023-05-07T04:16:06;17.25;;;11.65;;
75261;SDS011;63859;51.064;4.580;2023-05-07T04:18:32;14.32;;;11.00;;
75261;SDS011;63859;51.064;4.580;2023-05-07T04:20:57;14.73;;;11.63;;
75261;SDS011;63859;51.064;4.580;2023-05-07T04:23:23;14.18;;;11.13;;
75261;SDS011;63859;51.064;4.580;2023-05-07T04:25:48;13.13;;;11.13;;
75261;SDS011;63859;51.064;4.580;2023-05-07T04:28:15;15.35;;;10.88;;
75261;SDS011;63859;51.064;4.580;2023-05-07T04:30:41;17.23;;;11.75;;
75261;SDS011;63859;51.064;4.580;2023-05-07T04:33:07;14.38;;;10.02;;
75261;SDS011;63859;51.064;4.580;2023-05-07T04:35:33;14.30;;;10.85;;
75261;SDS011;63859;51.064;4.580;2023-05-07T04:37:59;16.73;;;10.52;;
75261;SDS011;63859;51.064;4.580;2023-05-07T04:40:25;13.10;;;10.07;;
75261;SDS011;63859;51.064;4.580;2023-05-07T04:42:51;16.77;;;10.73;;
75261;SDS011;63859;51.064;4.580;2023-05-07T04:45:18;14.82;;;10.85;;
75261;SDS011;63859;51.064;4.580;2023-05-07T04:47:43;18.05;;;10.70;;
75261;SDS011;63859;51.064;4.580;2023-05-07T04:50:09;14.60;;;11.23;;
75261;SDS011;63859;51.064;4.580;2023-05-07T04:52:35;13.50;;;10.60;;
75261;SDS011;63859;51.064;4.580;2023-05-07T04:55:01;18.65;;;10.90;;
75261;SDS011;63859;51.064;4.580;2023-05-07T04:57:27;13.93;;;10.15;;
75261;SDS011;63859;51.064;4.580;2023-05-07T04:59:53;13.30;;;10.65;;
75261;SDS011;63859;51.064;4.580;2023-05-07T05:02:19;15.27;;;10.52;;
75261;SDS011;63859;51.064;4.580;2023-05-07T05:04:45;15.70;;;10.55;;
75261;SDS011;63859;51.064;4.580;2023-05-07T05:07:10;17.67;;;10.52;;
75261;SDS011;63859;51.064;4.580;2023-05-07T05:09:36;13.98;;;10.48;;
75261;SDS011;63859;51.064;4.580;2023-05-07T05:12:02;14.13;;;10.68;;
75261;SDS011;63859;51.064;4.580;2023-05-07T05:14:28;13.43;;;10.38;;
75261;SDS011;63859;51.064;4.580;2023-05-07T05:16:54;17.83;;;10.73;;
75261;SDS011;63859;51.064;4.580;2023-05-07T05:19:20;13.50;;;10.68;;
75261;SDS011;63859;51.064;4.580;2023-05-07T05:21:45;14.88;;;10.75;;
75261;SDS011;63859;51.064;4.580;2023-05-07T05:24:11;15.50;;;11.18;;
75261;SDS011;63859;51.064;4.580;2023-05-07T05:26:37;16.83;;;10.60;;
75261;SDS011;63859;51.064;4.580;2023-05-07T05:29:02;14.60;;;10.77;;
75261;SDS011;63859;51.064;4.580;2023-05-07T05:31:28;14.07;;;10.23;;
75261;SDS011;63859;51.064;4.580;2023-05-07T05:33:54;13.70;;;10.27;;
75261;SDS011;63859;51.064;4.580;2023-05-07T05:36:19;16.73;;;10.05;;
75261;SDS011;63859;51.064;4.580;2023-05-07T05:38:45;16.05;;;10.73;;
75261;SDS011;63859;51.064;4.580;2023-05-07T05:41:11;15.30;;;9.77;;
75261;SDS011;63859;51.064;4.580;2023-05-07T05:43:36;12.30;;;10.38;;
75261;SDS011;63859;51.064;4.580;2023-05-07T05:46:02;14.05;;;10.85;;
75261;SDS011;63859;51.064;4.580;2023-05-07T05:48:29;14.98;;;10.20;;
75261;SDS011;63859;51.064;4.580;2023-05-07T05:50:55;16.58;;;10.68;;
75261;SDS011;63859;51.064;4.580;2023-05-07T05:53:21;18.65;;;11.07;;
75261;SDS011;63859;51.064;4.580;2023-05-07T05:55:46;15.93;;;10.38;;
75261;SDS011;63859;51.064;4.580;2023-05-07T05:58:12;15.52;;;10.88;;
75261;SDS011;63859;51.064;4.580;2023-05-07T06:00:38;11.82;;;10.38;;
75261;SDS011;63859;51.064;4.580;2023-05-07T06:03:03;13.57;;;10.52;;
75261;SDS011;63859;51.064;4.580;2023-05-07T06:05:29;15.18;;;11.20;;
75261;SDS011;63859;51.064;4.580;2023-05-07T06:07:55;15.52;;;10.95;;
75261;SDS011;63859;51.064;4.580;2023-05-07T06:10:21;15.52;;;11.35;;
75261;SDS011;63859;51.064;4.580;2023-05-07T06:12:46;17.85;;;10.93;;
75261;SDS011;63859;51.064;4.580;2023-05-07T06:15:12;17.02;;;11.27;;
75261;SDS011;63859;51.064;4.580;2023-05-07T06:17:38;15.63;;;11.32;;
75261;SDS011;63859;51.064;4.580;2023-05-07T06:20:03;15.52;;;11.30;;
75261;SDS011;63859;51.064;4.580;2023-05-07T06:22:30;15.45;;;10.93;;
75261;SDS011;63859;51.064;4.580;2023-05-07T06:24:55;20.05;;;12.25;;
75261;SDS011;63859;51.064;4.580;2023-05-07T06:27:21;17.13;;;11.07;;
75261;SDS011;63859;51.064;4.580;2023-05-07T06:29:47;16.10;;;10.15;;
75261;SDS011;63859;51.064;4.580;2023-05-07T06:32:13;19.92;;;10.82;;
75261;SDS011;63859;51.064;4.580;2023-05-07T06:34:39;15.70;;;11.18;;
75261;SDS011;63859;51.064;4.580;2023-05-07T06:37:06;17.75;;;11.70;;
75261;SDS011;63859;51.064;4.580;2023-05-07T06:39:32;15.93;;;11.23;;
75261;SDS011;63859;51.064;4.580;2023-05-07T06:41:58;15.10;;;11.07;;
75261;SDS011;63859;51.064;4.580;2023-05-07T06:44:24;16.23;;;11.57;;
75261;SDS011;63859;51.064;4.580;2023-05-07T06:46:50;13.10;;;10.77;;
75261;SDS011;63859;51.064;4.580;2023-05-07T06:49:16;15.13;;;11.52;;
75261;SDS011;63859;51.064;4.580;2023-05-07T06:51:41;16.10;;;11.35;;
75261;SDS011;63859;51.064;4.580;2023-05-07T06:54:07;18.08;;;12.77;;
75261;SDS011;63859;51.064;4.580;2023-05-07T06:56:33;18.15;;;11.85;;
75261;SDS011;63859;51.064;4.580;2023-05-07T06:58:59;15.80;;;11.75;;
75261;SDS011;63859;51.064;4.580;2023-05-07T07:01:26;17.17;;;12.00;;
75261;SDS011;63859;51.064;4.580;2023-05-07T07:03:53;18.75;;;12.32;;
75261;SDS011;63859;51.064;4.580;2023-05-07T07:06:18;18.60;;;11.85;;
75261;SDS011;63859;51.064;4.580;2023-05-07T07:08:44;19.25;;;12.70;;
75261;SDS011;63859;51.064;4.580;2023-05-07T07:11:10;16.77;;;12.20;;
75261;SDS011;63859;51.064;4.580;2023-05-07T07:13:36;15.68;;;12.10;;
75261;SDS011;63859;51.064;4.580;2023-05-07T07:16:02;17.45;;;12.25;;
75261;SDS011;63859;51.064;4.580;2023-05-07T07:18:28;18.38;;;12.10;;
75261;SDS011;63859;51.064;4.580;2023-05-07T07:20:53;20.73;;;12.32;;
75261;SDS011;63859;51.064;4.580;2023-05-07T07:23:19;16.10;;;12.20;;
75261;SDS011;63859;51.064;4.580;2023-05-07T07:25:45;19.08;;;12.20;;
75261;SDS011;63859;51.064;4.580;2023-05-07T07:28:11;19.60;;;12.45;;
75261;SDS011;63859;51.064;4.580;2023-05-07T07:30:37;20.35;;;12.40;;
75261;SDS011;63859;51.064;4.580;2023-05-07T07:33:04;17.52;;;11.50;;
75261;SDS011;63859;51.064;4.580;2023-05-07T07:35:30;16.35;;;10.88;;
75261;SDS011;63859;51.064;4.580;2023-05-07T07:37:58;14.45;;;10.48;;
75261;SDS011;63859;51.064;4.580;2023-05-07T07:40:24;17.05;;;11.10;;
75261;SDS011;63859;51.064;4.580;2023-05-07T07:42:51;19.35;;;11.73;;
75261;SDS011;63859;51.064;4.580;2023-05-07T07:45:16;16.77;;;11.02;;
75261;SDS011;63859;51.064;4.580;2023-05-07T07:47:42;17.50;;;11.77;;
75261;SDS011;63859;51.064;4.580;2023-05-07T07:50:08;16.15;;;11.45;;
75261;SDS011;63859;51.064;4.580;2023-05-07T07:52:34;15.27;;;10.77;;
75261;SDS011;63859;51.064;4.580;2023-05-07T07:55:00;15.23;;;9.77;;
75261;SDS011;63859;51.064;4.580;2023-05-07T07:57:26;19.17;;;9.75;;
75261;SDS011;63859;51.064;4.580;2023-05-07T07:59:52;17.50;;;10.02;;
75261;SDS011;63859;51.064;4.580;2023-05-07T08:02:17;21.05;;;9.55;;
75261;SDS011;63859;51.064;4.580;2023-05-07T08:04:43;16.50;;;9.00;;
75261;SDS011;63859;51.064;4.580;2023-05-07T08:07:09;12.50;;;8.90;;
75261;SDS011;63859;51.064;4.580;2023-05-07T08:09:36;23.83;;;10.02;;
75261;SDS011;63859;51.064;4.580;2023-05-07T08:12:03;15.45;;;9.20;;
75261;SDS011;63859;51.064;4.580;2023-05-07T08:14:29;25.17;;;9.02;;
75261;SDS011;63859;51.064;4.580;2023-05-07T08:16:55;15.40;;;8.60;;
75261;SDS011;63859;51.064;4.580;2023-05-07T08:19:21;18.13;;;9.45;;
75261;SDS011;63859;51.064;4.580;2023-05-07T08:21:47;13.95;;;8.93;;
75261;SDS011;63859;51.064;4.580;2023-05-07T08:24:13;15.15;;;10.23;;
75261;SDS011;63859;51.064;4.580;2023-05-07T08:26:39;16.85;;;8.98;;
75261;SDS011;63859;51.064;4.580;2023-05-07T08:29:05;14.07;;;9.43;;
75261;SDS011;63859;51.064;4.580;2023-05-07T08:31:31;17.15;;;9.82;;
75261;SDS011;63859;51.064;4.580;2023-05-07T08:33:57;20.08;;;10.10;;
75261;SDS011;63859;51.064;4.580;2023-05-07T08:36:23;15.15;;;9.93;;
75261;SDS011;63859;51.064;4.580;2023-05-07T08:38:49;16.45;;;10.15;;
75261;SDS011;63859;51.064;4.580;2023-05-07T08:41:15;15.63;;;10.48;;
75261;SDS011;63859;51.064;4.580;2023-05-07T08:43:41;15.35;;;10.60;;
75261;SDS011;63859;51.064;4.580;2023-05-07T08:46:07;20.08;;;10.80;;
75261;SDS011;63859;51.064;4.580;2023-05-07T08:48:35;14.43;;;9.50;;
75261;SDS011;63859;51.064;4.580;2023-05-07T08:51:01;16.98;;;10.45;;
75261;SDS011;63859;51.064;4.580;2023-05-07T08:53:27;20.27;;;9.82;;
75261;SDS011;63859;51.064;4.580;2023-05-07T08:55:53;15.73;;;8.55;;
75261;SDS011;63859;51.064;4.580;2023-05-07T08:58:18;15.25;;;8.10;;
75261;SDS011;63859;51.064;4.580;2023-05-07T09:00:44;13.68;;;7.97;;
75261;SDS011;63859;51.064;4.580;2023-05-07T09:03:11;14.95;;;8.30;;
75261;SDS011;63859;51.064;4.580;2023-05-07T09:05:37;16.88;;;8.10;;
75261;SDS011;63859;51.064;4.580;2023-05-07T09:08:03;15.85;;;8.70;;
75261;SDS011;63859;51.064;4.580;2023-05-07T09:10:33;14.35;;;8.00;;
75261;SDS011;63859;51.064;4.580;2023-05-07T09:12:59;16.35;;;8.02;;
75261;SDS011;63859;51.064;4.580;2023-05-07T09:15:25;15.05;;;8.13;;
75261;SDS011;63859;51.064;4.580;2023-05-07T09:17:53;14.35;;;8.63;;
75261;SDS011;63859;51.064;4.580;2023-05-07T09:20:18;22.50;;;9.40;;
75261;SDS011;63859;51.064;4.580;2023-05-07T09:22:44;17.38;;;9.25;;
75261;SDS011;63859;51.064;4.580;2023-05-07T09:25:10;19.75;;;10.50;;
75261;SDS011;63859;51.064;4.580;2023-05-07T09:27:36;18.65;;;10.43;;
75261;SDS011;63859;51.064;4.580;2023-05-07T09:30:08;20.27;;;10.32;;
75261;SDS011;63859;51.064;4.580;2023-05-07T09:32:34;18.27;;;9.88;;
75261;SDS011;63859;51.064;4.580;2023-05-07T09:35:03;17.95;;;9.52;;
75261;SDS011;63859;51.064;4.580;2023-05-07T09:37:30;17.77;;;9.48;;
75261;SDS011;63859;51.064;4.580;2023-05-07T09:39:57;21.20;;;9.93;;
75261;SDS011;63859;51.064;4.580;2023-05-07T09:42:26;17.95;;;9.82;;
75261;SDS011;63859;51.064;4.580;2023-05-07T09:44:52;17.25;;;9.95;;
75261;SDS011;63859;51.064;4.580;2023-05-07T09:47:18;16.60;;;9.48;;
75261;SDS011;63859;51.064;4.580;2023-05-07T09:49:46;15.50;;;8.18;;
75261;SDS011;63859;51.064;4.580;2023-05-07T09:52:13;14.05;;;7.80;;
75261;SDS011;63859;51.064;4.580;2023-05-07T09:54:39;14.32;;;7.95;;
75261;SDS011;63859;51.064;4.580;2023-05-07T09:57:08;14.30;;;7.63;;
75261;SDS011;63859;51.064;4.580;2023-05-07T09:59:36;10.65;;;5.95;;
75261;SDS011;63859;51.064;4.580;2023-05-07T10:02:03;14.65;;;6.65;;
75261;SDS011;63859;51.064;4.580;2023-05-07T10:04:30;14.15;;;6.90;;
75261;SDS011;63859;51.064;4.580;2023-05-07T10:06:57;12.50;;;6.97;;
75261;SDS011;63859;51.064;4.580;2023-05-07T10:09:23;15.60;;;7.93;;
75261;SDS011;63859;51.064;4.580;2023-05-07T10:11:51;12.20;;;8.00;;
75261;SDS011;63859;51.064;4.580;2023-05-07T10:14:18;16.00;;;8.23;;
75261;SDS011;63859;51.064;4.580;2023-05-07T10:16:45;13.13;;;8.07;;
75261;SDS011;63859;51.064;4.580;2023-05-07T10:19:13;19.33;;;7.57;;
75261;SDS011;63859;51.064;4.580;2023-05-07T10:21:43;12.77;;;7.32;;
75261;SDS011;63859;51.064;4.580;2023-05-07T10:24:17;12.15;;;7.32;;
75261;SDS011;63859;51.064;4.580;2023-05-07T10:26:47;12.05;;;6.13;;
75261;SDS011;63859;51.064;4.580;2023-05-07T10:34:57;9.07;;;4.93;;
75261;SDS011;63859;51.064;4.580;2023-05-07T10:37:26;9.45;;;5.57;;
75261;SDS011;63859;51.064;4.580;2023-05-07T10:39:52;8.98;;;5.80;;
75261;SDS011;63859;51.064;4.580;2023-05-07T10:42:18;12.75;;;6.35;;
75261;SDS011;63859;51.064;4.580;2023-05-07T10:44:44;13.93;;;6.25;;
75261;SDS011;63859;51.064;4.580;2023-05-07T10:47:10;13.90;;;6.63;;
75261;SDS011;63859;51.064;4.580;2023-05-07T10:52:16;18.67;;;7.35;;
75261;SDS011;63859;51.064;4.580;2023-05-07T10:54:43;13.82;;;6.88;;
75261;SDS011;63859;51.064;4.580;2023-05-07T10:59:58;11.10;;;6.60;;
75261;SDS011;63859;51.064;4.580;2023-05-07T11:02:25;9.93;;;6.57;;
75261;SDS011;63859;51.064;4.580;2023-05-07T11:05:25;12.32;;;6.65;;
75261;SDS011;63859;51.064;4.580;2023-05-07T11:07:54;11.70;;;6.43;;
75261;SDS011;63859;51.064;4.580;2023-05-07T11:10:21;14.50;;;7.60;;
75261;SDS011;63859;51.064;4.580;2023-05-07T11:12:47;16.25;;;7.03;;
75261;SDS011;63859;51.064;4.580;2023-05-07T11:15:36;18.23;;;7.60;;
75261;SDS011;63859;51.064;4.580;2023-05-07T11:18:04;15.27;;;7.55;;
75261;SDS011;63859;51.064;4.580;2023-05-07T11:20:44;12.10;;;5.78;;
75261;SDS011;63859;51.064;4.580;2023-05-07T11:26:07;12.45;;;6.15;;
75261;SDS011;63859;51.064;4.580;2023-05-07T11:28:38;13.75;;;5.78;;
75261;SDS011;63859;51.064;4.580;2023-05-07T11:31:06;12.90;;;5.60;;
75261;SDS011;63859;51.064;4.580;2023-05-07T11:33:32;15.48;;;5.80;;
75261;SDS011;63859;51.064;4.580;2023-05-07T11:36:01;12.57;;;6.03;;
75261;SDS011;63859;51.064;4.580;2023-05-07T11:38:29;14.18;;;5.97;;
75261;SDS011;63859;51.064;4.580;2023-05-07T11:40:56;11.93;;;5.50;;
75261;SDS011;63859;51.064;4.580;2023-05-07T11:43:25;12.70;;;5.57;;
75261;SDS011;63859;51.064;4.580;2023-05-07T11:45:51;15.25;;;5.45;;
75261;SDS011;63859;51.064;4.580;2023-05-07T11:48:17;11.65;;;4.50;;
75261;SDS011;63859;51.064;4.580;2023-05-07T11:50:52;9.73;;;4.43;;
75261;SDS011;63859;51.064;4.580;2023-05-07T11:53:19;14.93;;;4.95;;
75261;SDS011;63859;51.064;4.580;2023-05-07T11:55:51;6.82;;;4.63;;
75261;SDS011;63859;51.064;4.580;2023-05-07T11:58:20;11.13;;;4.80;;
75261;SDS011;63859;51.064;4.580;2023-05-07T12:00:51;9.07;;;3.90;;
75261;SDS011;63859;51.064;4.580;2023-05-07T12:03:18;9.32;;;4.20;;
75261;SDS011;63859;51.064;4.580;2023-05-07T12:05:47;11.43;;;4.70;;
75261;SDS011;63859;51.064;4.580;2023-05-07T12:08:16;9.77;;;4.38;;
75261;SDS011;63859;51.064;4.580;2023-05-07T12:10:43;9.05;;;4.10;;
75261;SDS011;63859;51.064;4.580;2023-05-07T12:13:16;9.25;;;4.20;;
75261;SDS011;63859;51.064;4.580;2023-05-07T12:15:50;9.70;;;4.03;;
75261;SDS011;63859;51.064;4.580;2023-05-07T12:18:16;10.63;;;3.97;;
75261;SDS011;63859;51.064;4.580;2023-05-07T12:20:42;12.00;;;3.97;;
75261;SDS011;63859;51.064;4.580;2023-05-07T12:23:08;11.38;;;3.88;;
75261;SDS011;63859;51.064;4.580;2023-05-07T12:25:40;9.43;;;3.63;;
75261;SDS011;63859;51.064;4.580;2023-05-07T12:28:15;11.13;;;4.07;;
75261;SDS011;63859;51.064;4.580;2023-05-07T12:30:48;10.00;;;3.60;;
75261;SDS011;63859;51.064;4.580;2023-05-07T12:33:16;8.82;;;3.40;;
75261;SDS011;63859;51.064;4.580;2023-05-07T12:35:43;8.55;;;2.97;;
75261;SDS011;63859;51.064;4.580;2023-05-07T12:38:09;10.57;;;3.70;;
75261;SDS011;63859;51.064;4.580;2023-05-07T12:40:37;10.65;;;3.35;;
75261;SDS011;63859;51.064;4.580;2023-05-07T12:43:04;7.47;;;2.97;;
75261;SDS011;63859;51.064;4.580;2023-05-07T12:45:30;7.03;;;3.15;;
75261;SDS011;63859;51.064;4.580;2023-05-07T12:47:56;8.57;;;3.00;;
75261;SDS011;63859;51.064;4.580;2023-05-07T12:50:26;7.00;;;3.05;;
75261;SDS011;63859;51.064;4.580;2023-05-07T12:52:55;6.47;;;2.75;;
75261;SDS011;63859;51.064;4.580;2023-05-07T12:55:21;9.45;;;2.53;;
75261;SDS011;63859;51.064;4.580;2023-05-07T12:57:50;5.10;;;2.35;;
75261;SDS011;63859;51.064;4.580;2023-05-07T13:00:16;5.95;;;2.40;;
75261;SDS011;63859;51.064;4.580;2023-05-07T13:02:43;7.22;;;2.83;;
75261;SDS011;63859;51.064;4.580;2023-05-07T13:05:10;5.90;;;2.60;;
75261;SDS011;63859;51.064;4.580;2023-05-07T13:07:36;8.88;;;3.15;;
75261;SDS011;63859;51.064;4.580;2023-05-07T13:10:02;4.45;;;2.70;;
75261;SDS011;63859;51.064;4.580;2023-05-07T13:12:28;6.35;;;2.78;;
75261;SDS011;63859;51.064;4.580;2023-05-07T13:14:54;6.07;;;2.67;;
75261;SDS011;63859;51.064;4.580;2023-05-07T13:17:20;8.20;;;2.70;;
75261;SDS011;63859;51.064;4.580;2023-05-07T13:19:46;7.20;;;2.53;;
75261;SDS011;63859;51.064;4.580;2023-05-07T13:22:11;6.10;;;2.20;;
75261;SDS011;63859;51.064;4.580;2023-05-07T13:24:37;4.90;;;2.60;;
75261;SDS011;63859;51.064;4.580;2023-05-07T13:27:03;3.95;;;2.42;;
75261;SDS011;63859;51.064;4.580;2023-05-07T13:29:29;8.20;;;3.13;;
75261;SDS011;63859;51.064;4.580;2023-05-07T13:31:58;7.97;;;3.40;;
75261;SDS011;63859;51.064;4.580;2023-05-07T13:34:24;6.30;;;2.90;;
75261;SDS011;63859;51.064;4.580;2023-05-07T13:36:50;4.82;;;2.90;;
75261;SDS011;63859;51.064;4.580;2023-05-07T13:39:16;8.13;;;2.78;;
75261;SDS011;63859;51.064;4.580;2023-05-07T13:41:41;9.85;;;3.30;;
75261;SDS011;63859;51.064;4.580;2023-05-07T13:44:07;8.30;;;3.13;;
75261;SDS011;63859;51.064;4.580;2023-05-07T13:46:33;5.40;;;2.92;;
75261;SDS011;63859;51.064;4.580;2023-05-07T13:48:58;8.38;;;3.40;;
75261;SDS011;63859;51.064;4.580;2023-05-07T13:51:24;7.95;;;3.25;;
75261;SDS011;63859;51.064;4.580;2023-05-07T13:53:50;9.65;;;3.30;;
75261;SDS011;63859;51.064;4.580;2023-05-07T13:56:17;5.78;;;3.05;;
75261;SDS011;63859;51.064;4.580;2023-05-07T13:58:43;8.65;;;3.03;;
75261;SDS011;63859;51.064;4.580;2023-05-07T14:01:08;5.65;;;3.20;;
75261;SDS011;63859;51.064;4.580;2023-05-07T14:03:34;5.68;;;3.00;;
75261;SDS011;63859;51.064;4.580;2023-05-07T14:06:02;7.07;;;3.13;;
75261;SDS011;63859;51.064;4.580;2023-05-07T14:08:28;8.52;;;3.03;;
75261;SDS011;63859;51.064;4.580;2023-05-07T14:10:54;6.85;;;3.17;;
75261;SDS011;63859;51.064;4.580;2023-05-07T14:13:20;8.43;;;3.33;;
75261;SDS011;63859;51.064;4.580;2023-05-07T14:15:46;7.45;;;3.13;;
75261;SDS011;63859;51.064;4.580;2023-05-07T14:18:13;7.43;;;3.20;;
75261;SDS011;63859;51.064;4.580;2023-05-07T14:20:39;7.18;;;3.55;;
75261;SDS011;63859;51.064;4.580;2023-05-07T14:23:04;8.07;;;3.55;;
75261;SDS011;63859;51.064;4.580;2023-05-07T14:25:30;12.85;;;3.53;;
75261;SDS011;63859;51.064;4.580;2023-05-07T14:27:56;8.02;;;3.95;;
75261;SDS011;63859;51.064;4.580;2023-05-07T14:30:21;6.40;;;3.63;;
75261;SDS011;63859;51.064;4.580;2023-05-07T14:32:49;6.43;;;3.70;;
75261;SDS011;63859;51.064;4.580;2023-05-07T14:35:15;12.68;;;4.25;;
75261;SDS011;63859;51.064;4.580;2023-05-07T14:37:42;6.25;;;3.72;;
75261;SDS011;63859;51.064;4.580;2023-05-07T14:40:08;11.30;;;3.92;;
75261;SDS011;63859;51.064;4.580;2023-05-07T14:42:34;7.57;;;3.85;;